Hoopersville, Maryland
Current Conditions -  °F | °C
As of 10:52 PM on Sunday 25 Jan 2015 (Local Time) from KNHK Reporting Station
Overcast Overcast  
Wind Chill: 36°   Ceiling: 9000
Heat Index: 41°   Visibility: 10mi
Dew Point: 34°   Wind: 8mph
Humidity: 76%   Direction: 150°SSE
Pressure: 29.86"   Gusts: NA
Location:  38.3287°N, 76.2289°W
Report Text: KNHK 260352Z AUTO 15007KT 10SM SCT075 OVC090 05/01 A2986 RMK AO2 SLP113 T00500011 VISNO RY24 $
Loading
Personal Weather Stations






























Interactive Weather Map New forecast layout! Learn more

10-Day Weather Forecast

Advertisements
Track Severe Weather on mobile